NOO5325 SLVR-SKBO
Flight info
| Callsign | NOO5325 |
|---|---|
| Flight time | 3h 32m |
| Altitude | 32000 |
| Route | PAKES1 PAKES UN420 VILUX/N0475F340 UN420 RCO UL417 PABON UP530 VVC/N0434F240 B689 EGEPI EGEP5E |
| Aircraft | B738/M-SDE2E3FGHIRWXY/LB1 |
Departure
| Time | 2026-05-08 20:29 |
|---|---|
| Airport | Viru Viru International Airport (SLVR) |
Arrival
| Time | 2026-05-09 00:02 |
|---|---|
| Airport | El Dorado International Airport (SKBO) |
| Time | Latitude | Longitude | Altitude | Speed | Heading |
|---|---|---|---|---|---|
| 2026-05-08 19:58 | -17.64850 | -63.13930 | 1255 ft | 0 kts | 237° |
| 2026-05-08 20:15 | -17.64845 | -63.13923 | 1255 ft | 2 kts | 237° |
| 2026-05-08 20:16 | -17.64837 | -63.13909 | 1255 ft | 2 kts | 237° |
| 2026-05-08 20:16 | -17.64829 | -63.13897 | 1254 ft | 2 kts | 237° |
| 2026-05-08 20:16 | -17.64821 | -63.13883 | 1254 ft | 2 kts | 234° |
| 2026-05-08 20:16 | -17.64810 | -63.13873 | 1254 ft | 2 kts | 205° |
| 2026-05-08 20:17 | -17.64795 | -63.13869 | 1254 ft | 2 kts | 182° |
| 2026-05-08 20:17 | -17.64780 | -63.13871 | 1254 ft | 2 kts | 159° |
| 2026-05-08 20:17 | -17.64768 | -63.13879 | 1254 ft | 2 kts | 142° |
| 2026-05-08 20:17 | -17.64755 | -63.13887 | 1254 ft | 2 kts | 149° |
| 2026-05-08 20:18 | -17.64742 | -63.13896 | 1254 ft | 2 kts | 147° |
| 2026-05-08 20:18 | -17.64731 | -63.13904 | 1254 ft | 1 kts | 147° |
| 2026-05-08 20:18 | -17.64730 | -63.13904 | 1254 ft | 0 kts | 147° |
| 2026-05-08 20:20 | -17.64748 | -63.13892 | 1254 ft | 7 kts | 147° |
| 2026-05-08 20:21 | -17.64808 | -63.13851 | 1254 ft | 13 kts | 148° |
| 2026-05-08 20:21 | -17.64892 | -63.13792 | 1254 ft | 14 kts | 128° |
| 2026-05-08 20:21 | -17.64865 | -63.13712 | 1253 ft | 12 kts | 54° |
| 2026-05-08 20:21 | -17.64810 | -63.13631 | 1251 ft | 14 kts | 54° |
| 2026-05-08 20:22 | -17.64745 | -63.13595 | 1250 ft | 10 kts | 326° |
| 2026-05-08 20:22 | -17.64687 | -63.13635 | 1249 ft | 12 kts | 327° |
| 2026-05-08 20:22 | -17.64600 | -63.13696 | 1249 ft | 17 kts | 329° |
| 2026-05-08 20:22 | -17.64535 | -63.13739 | 1248 ft | 15 kts | 328° |
| 2026-05-08 20:23 | -17.64427 | -63.13811 | 1248 ft | 11 kts | 325° |
| 2026-05-08 20:23 | -17.64351 | -63.13860 | 1248 ft | 16 kts | 328° |
| 2026-05-08 20:23 | -17.64237 | -63.13937 | 1247 ft | 19 kts | 326° |
| 2026-05-08 20:23 | -17.64136 | -63.14011 | 1246 ft | 16 kts | 328° |
| 2026-05-08 20:24 | -17.64047 | -63.14067 | 1246 ft | 13 kts | 330° |
| 2026-05-08 20:24 | -17.63971 | -63.14104 | 1246 ft | 10 kts | 8° |
| 2026-05-08 20:24 | -17.63931 | -63.14049 | 1245 ft | 10 kts | 60° |
| 2026-05-08 20:24 | -17.63894 | -63.13989 | 1244 ft | 9 kts | 49° |
| 2026-05-08 20:25 | -17.63829 | -63.13976 | 1243 ft | 11 kts | 337° |
| 2026-05-08 20:25 | -17.63751 | -63.14024 | 1243 ft | 14 kts | 327° |
| 2026-05-08 20:25 | -17.63656 | -63.14088 | 1242 ft | 17 kts | 327° |
| 2026-05-08 20:25 | -17.63547 | -63.14160 | 1242 ft | 18 kts | 327° |
| 2026-05-08 20:26 | -17.63431 | -63.14238 | 1241 ft | 21 kts | 327° |
| 2026-05-08 20:26 | -17.63307 | -63.14323 | 1241 ft | 20 kts | 326° |
| 2026-05-08 20:26 | -17.63227 | -63.14403 | 1240 ft | 12 kts | 290° |
| 2026-05-08 20:26 | -17.63192 | -63.14454 | 1240 ft | 7 kts | 357° |
| 2026-05-08 20:27 | -17.63165 | -63.14426 | 1239 ft | 4 kts | 112° |
| 2026-05-08 20:27 | -17.63183 | -63.14407 | 1240 ft | 0 kts | 144° |
| 2026-05-08 20:28 | -17.63212 | -63.14388 | 1240 ft | 25 kts | 147° |
| 2026-05-08 20:28 | -17.63567 | -63.14148 | 1242 ft | 93 kts | 147° |
| 2026-05-08 20:28 | -17.64288 | -63.13661 | 1246 ft | 151 kts | 147° |
| 2026-05-08 20:29 | -17.65265 | -63.12996 | 1533 ft | 173 kts | 146° |
| 2026-05-08 20:29 | -17.66233 | -63.12277 | 2224 ft | 174 kts | 145° |
| 2026-05-08 20:29 | -17.67320 | -63.11596 | 2669 ft | 190 kts | 149° |
| 2026-05-08 20:29 | -17.68328 | -63.10617 | 2898 ft | 211 kts | 118° |
| 2026-05-08 20:30 | -17.68532 | -63.09037 | 3117 ft | 232 kts | 76° |
| 2026-05-08 20:30 | -17.67746 | -63.07511 | 3648 ft | 243 kts | 52° |
| 2026-05-08 20:30 | -17.66465 | -63.06363 | 4139 ft | 254 kts | 23° |
| 2026-05-08 20:30 | -17.64730 | -63.06139 | 4760 ft | 257 kts | 347° |
| 2026-05-08 20:31 | -17.63186 | -63.07015 | 5400 ft | 259 kts | 311° |
| 2026-05-08 20:31 | -17.62418 | -63.08683 | 6109 ft | 256 kts | 275° |
| 2026-05-08 20:31 | -17.62538 | -63.10535 | 6876 ft | 255 kts | 263° |
| 2026-05-08 20:31 | -17.62647 | -63.12399 | 7491 ft | 260 kts | 272° |
| 2026-05-08 20:32 | -17.62512 | -63.14285 | 8145 ft | 263 kts | 284° |
| 2026-05-08 20:32 | -17.61828 | -63.16038 | 8846 ft | 261 kts | 305° |
| 2026-05-08 20:32 | -17.60799 | -63.17560 | 9697 ft | 257 kts | 306° |
| 2026-05-08 20:32 | -17.59784 | -63.19103 | 10367 ft | 261 kts | 305° |
| 2026-05-08 20:33 | -17.58712 | -63.20755 | 10479 ft | 286 kts | 305° |
| 2026-05-08 20:33 | -17.57544 | -63.22537 | 10739 ft | 305 kts | 305° |
| 2026-05-08 20:33 | -17.56299 | -63.24432 | 10841 ft | 327 kts | 305° |
| 2026-05-08 20:33 | -17.54971 | -63.26463 | 11196 ft | 340 kts | 305° |
| 2026-05-08 20:34 | -17.53640 | -63.28499 | 11991 ft | 339 kts | 305° |
| 2026-05-08 20:34 | -17.52290 | -63.30564 | 12517 ft | 346 kts | 304° |
| 2026-05-08 20:34 | -17.49530 | -63.34772 | 13794 ft | 353 kts | 304° |
| 2026-05-08 20:35 | -17.48143 | -63.36887 | 14365 ft | 358 kts | 304° |
| 2026-05-08 20:35 | -17.46704 | -63.39084 | 14921 ft | 363 kts | 304° |
| 2026-05-08 20:35 | -17.45264 | -63.41281 | 15469 ft | 368 kts | 304° |
| 2026-05-08 20:35 | -17.43815 | -63.43491 | 16013 ft | 373 kts | 303° |
| 2026-05-08 20:36 | -17.42318 | -63.45773 | 16531 ft | 378 kts | 303° |
| 2026-05-08 20:36 | -17.40830 | -63.48040 | 17034 ft | 383 kts | 303° |
| 2026-05-08 20:36 | -17.39298 | -63.50372 | 17538 ft | 387 kts | 303° |
| 2026-05-08 20:36 | -17.37760 | -63.52715 | 18023 ft | 392 kts | 303° |
| 2026-05-08 20:37 | -17.36112 | -63.55008 | 18507 ft | 397 kts | 310° |
| 2026-05-08 20:37 | -17.34127 | -63.57010 | 19007 ft | 401 kts | 319° |
| 2026-05-08 20:37 | -17.31771 | -63.58633 | 19497 ft | 407 kts | 330° |
| 2026-05-08 20:37 | -17.29095 | -63.59758 | 19982 ft | 413 kts | 339° |
| 2026-05-08 20:38 | -17.26373 | -63.60659 | 20431 ft | 416 kts | 339° |
| 2026-05-08 20:38 | -17.23603 | -63.61610 | 20842 ft | 419 kts | 339° |
| 2026-05-08 20:38 | -17.20802 | -63.62590 | 21296 ft | 422 kts | 339° |
| 2026-05-08 20:38 | -17.18000 | -63.63562 | 21722 ft | 424 kts | 339° |
| 2026-05-08 20:39 | -17.15189 | -63.64529 | 22110 ft | 428 kts | 339° |
| 2026-05-08 20:39 | -17.12361 | -63.65499 | 22510 ft | 430 kts | 339° |
| 2026-05-08 20:39 | -17.09460 | -63.66494 | 22894 ft | 433 kts | 339° |
| 2026-05-08 20:39 | -17.06597 | -63.67474 | 23268 ft | 436 kts | 339° |
| 2026-05-08 20:40 | -17.03702 | -63.68465 | 23653 ft | 438 kts | 339° |
| 2026-05-08 20:40 | -17.00798 | -63.69459 | 24003 ft | 441 kts | 339° |
| 2026-05-08 20:40 | -16.97855 | -63.70464 | 24372 ft | 443 kts | 339° |
| 2026-05-08 20:40 | -16.94918 | -63.71466 | 24772 ft | 444 kts | 339° |
| 2026-05-08 20:41 | -16.91993 | -63.72466 | 25078 ft | 446 kts | 339° |
| 2026-05-08 20:41 | -16.89031 | -63.73478 | 25444 ft | 447 kts | 339° |
| 2026-05-08 20:41 | -16.86074 | -63.74485 | 25748 ft | 450 kts | 339° |
| 2026-05-08 20:41 | -16.83113 | -63.75494 | 26077 ft | 451 kts | 339° |
| 2026-05-08 20:42 | -16.80097 | -63.76522 | 26367 ft | 453 kts | 339° |
| 2026-05-08 20:42 | -16.77066 | -63.77555 | 26689 ft | 454 kts | 339° |
| 2026-05-08 20:42 | -16.74079 | -63.78571 | 26943 ft | 457 kts | 339° |
| 2026-05-08 20:42 | -16.71060 | -63.79599 | 27231 ft | 458 kts | 339° |
| 2026-05-08 20:43 | -16.68001 | -63.80641 | 27493 ft | 459 kts | 339° |
| 2026-05-08 20:43 | -16.64971 | -63.81673 | 27992 ft | 455 kts | 338° |
| 2026-05-08 20:43 | -16.61964 | -63.82694 | 28401 ft | 453 kts | 339° |
| 2026-05-08 20:43 | -16.58965 | -63.83712 | 28744 ft | 453 kts | 338° |
| 2026-05-08 20:44 | -16.55991 | -63.84726 | 29120 ft | 451 kts | 338° |
| 2026-05-08 20:44 | -16.53006 | -63.85767 | 29482 ft | 449 kts | 337° |
| 2026-05-08 20:44 | -16.50080 | -63.86913 | 29831 ft | 447 kts | 333° |
| 2026-05-08 20:44 | -16.47299 | -63.88344 | 30168 ft | 442 kts | 327° |
| 2026-05-08 20:45 | -16.44636 | -63.89978 | 30542 ft | 440 kts | 326° |
| 2026-05-08 20:45 | -16.42905 | -63.91054 | 30748 ft | 439 kts | 326° |
| 2026-05-08 20:45 | -16.39375 | -63.93212 | 31174 ft | 438 kts | 326° |
| 2026-05-08 20:45 | -16.36774 | -63.94811 | 31539 ft | 436 kts | 326° |
| 2026-05-08 20:46 | -16.34177 | -63.96429 | 31864 ft | 434 kts | 326° |
| 2026-05-08 20:46 | -16.31596 | -63.98052 | 31994 ft | 435 kts | 325° |
| 2026-05-08 20:46 | -16.29001 | -63.99685 | 31999 ft | 435 kts | 325° |
| 2026-05-08 20:47 | -16.23820 | -64.02945 | 32000 ft | 432 kts | 325° |
| 2026-05-08 20:47 | -16.18699 | -64.06179 | 32000 ft | 431 kts | 325° |
| 2026-05-08 20:48 | -16.13551 | -64.09434 | 32000 ft | 432 kts | 325° |
| 2026-05-08 20:48 | -16.08407 | -64.12687 | 32000 ft | 432 kts | 325° |
| 2026-05-08 20:49 | -16.03274 | -64.15932 | 32000 ft | 432 kts | 325° |
| 2026-05-08 20:49 | -15.98132 | -64.19182 | 32000 ft | 432 kts | 325° |
| 2026-05-08 20:50 | -15.93002 | -64.22423 | 31999 ft | 432 kts | 325° |
| 2026-05-08 20:50 | -15.87871 | -64.25663 | 31999 ft | 432 kts | 325° |
| 2026-05-08 20:51 | -15.82710 | -64.28920 | 32000 ft | 433 kts | 325° |
| 2026-05-08 20:51 | -15.77549 | -64.32174 | 31999 ft | 433 kts | 325° |
| 2026-05-08 20:52 | -15.72413 | -64.35411 | 31999 ft | 432 kts | 325° |
| 2026-05-08 20:52 | -15.67231 | -64.38676 | 32000 ft | 433 kts | 325° |
| 2026-05-08 20:53 | -15.62080 | -64.41919 | 32000 ft | 434 kts | 325° |
| 2026-05-08 20:53 | -15.56912 | -64.45170 | 31999 ft | 433 kts | 325° |
| 2026-05-08 20:54 | -15.51761 | -64.48409 | 32000 ft | 433 kts | 325° |
| 2026-05-08 20:54 | -15.46613 | -64.51666 | 32000 ft | 434 kts | 325° |
| 2026-05-08 20:55 | -15.41449 | -64.54947 | 32000 ft | 435 kts | 325° |
| 2026-05-08 20:55 | -15.36276 | -64.58225 | 31999 ft | 435 kts | 325° |
| 2026-05-08 20:56 | -15.31143 | -64.61476 | 32000 ft | 435 kts | 325° |
| 2026-05-08 20:56 | -15.25956 | -64.64759 | 32000 ft | 435 kts | 325° |
| 2026-05-08 20:57 | -15.20787 | -64.68028 | 31999 ft | 435 kts | 326° |
| 2026-05-08 20:57 | -15.15608 | -64.71301 | 31999 ft | 435 kts | 326° |
| 2026-05-08 20:58 | -15.10406 | -64.74588 | 32000 ft | 435 kts | 326° |
| 2026-05-08 20:58 | -15.05255 | -64.77842 | 32000 ft | 436 kts | 326° |
| 2026-05-08 20:59 | -15.00069 | -64.81114 | 31999 ft | 436 kts | 326° |
| 2026-05-08 20:59 | -14.94865 | -64.84396 | 31999 ft | 436 kts | 326° |
| 2026-05-08 21:00 | -14.89713 | -64.87647 | 32000 ft | 437 kts | 326° |
| 2026-05-08 21:00 | -14.84489 | -64.90937 | 31999 ft | 437 kts | 326° |
| 2026-05-08 21:01 | -14.79319 | -64.94189 | 31999 ft | 437 kts | 326° |
| 2026-05-08 21:01 | -14.74046 | -64.97379 | 32000 ft | 437 kts | 327° |
| 2026-05-08 21:02 | -14.68790 | -65.00538 | 31999 ft | 437 kts | 327° |
| 2026-05-08 21:02 | -14.63546 | -65.03703 | 32000 ft | 439 kts | 327° |
| 2026-05-08 21:03 | -14.58280 | -65.06873 | 31999 ft | 439 kts | 327° |
| 2026-05-08 21:03 | -14.52995 | -65.10056 | 31999 ft | 438 kts | 327° |
| 2026-05-08 21:04 | -14.47706 | -65.13240 | 32000 ft | 438 kts | 327° |
| 2026-05-08 21:04 | -14.42439 | -65.16409 | 32000 ft | 438 kts | 327° |
| 2026-05-08 21:05 | -14.37168 | -65.19580 | 31893 ft | 441 kts | 327° |
| 2026-05-08 21:05 | -14.31851 | -65.22775 | 31885 ft | 440 kts | 327° |
| 2026-05-08 21:06 | -14.26573 | -65.25947 | 31884 ft | 441 kts | 327° |
| 2026-05-08 21:06 | -14.21246 | -65.29147 | 31885 ft | 441 kts | 327° |
| 2026-05-08 21:07 | -14.15947 | -65.32327 | 31885 ft | 441 kts | 327° |
| 2026-05-08 21:07 | -14.10633 | -65.35515 | 31885 ft | 441 kts | 327° |
| 2026-05-08 21:08 | -14.05498 | -65.38603 | 31885 ft | 441 kts | 326° |
| 2026-05-08 21:08 | -14.00207 | -65.41849 | 31885 ft | 441 kts | 326° |
| 2026-05-08 21:09 | -13.94934 | -65.45073 | 31885 ft | 441 kts | 327° |
| 2026-05-08 21:09 | -13.89678 | -65.48286 | 31885 ft | 441 kts | 327° |
| 2026-05-08 21:10 | -13.84342 | -65.51544 | 31884 ft | 441 kts | 327° |
| 2026-05-08 21:10 | -13.79078 | -65.54756 | 31885 ft | 441 kts | 327° |
| 2026-05-08 21:11 | -13.73765 | -65.57997 | 31885 ft | 441 kts | 327° |
| 2026-05-08 21:11 | -13.68468 | -65.61226 | 31885 ft | 441 kts | 327° |
| 2026-05-08 21:12 | -13.63193 | -65.64440 | 31885 ft | 441 kts | 327° |
| 2026-05-08 21:12 | -13.57900 | -65.67664 | 31885 ft | 442 kts | 327° |
| 2026-05-08 21:13 | -13.52621 | -65.70877 | 31885 ft | 441 kts | 327° |
| 2026-05-08 21:13 | -13.47343 | -65.74088 | 31885 ft | 441 kts | 327° |
| 2026-05-08 21:14 | -13.42065 | -65.77296 | 31885 ft | 441 kts | 327° |
| 2026-05-08 21:14 | -13.36779 | -65.80508 | 31885 ft | 441 kts | 327° |
| 2026-05-08 21:15 | -13.31511 | -65.83708 | 31885 ft | 441 kts | 327° |
| 2026-05-08 21:15 | -13.26263 | -65.86893 | 31883 ft | 441 kts | 327° |
| 2026-05-08 21:16 | -13.20972 | -65.90104 | 31874 ft | 441 kts | 327° |
| 2026-05-08 21:16 | -13.15678 | -65.93314 | 31865 ft | 441 kts | 327° |
| 2026-05-08 21:17 | -13.10428 | -65.96496 | 31858 ft | 441 kts | 327° |
| 2026-05-08 21:17 | -13.05158 | -65.99689 | 31858 ft | 440 kts | 327° |
| 2026-05-08 21:18 | -12.99865 | -66.02896 | 31858 ft | 440 kts | 327° |
| 2026-05-08 21:18 | -12.94600 | -66.06081 | 31858 ft | 440 kts | 327° |
| 2026-05-08 21:19 | -12.89304 | -66.09287 | 31858 ft | 441 kts | 327° |
| 2026-05-08 21:19 | -12.84020 | -66.12481 | 31858 ft | 441 kts | 327° |
| 2026-05-08 21:20 | -12.78763 | -66.15656 | 31858 ft | 441 kts | 327° |
| 2026-05-08 21:20 | -12.73478 | -66.18848 | 31858 ft | 440 kts | 327° |
| 2026-05-08 21:21 | -12.68216 | -66.22025 | 31858 ft | 440 kts | 327° |
| 2026-05-08 21:21 | -12.62934 | -66.25212 | 31858 ft | 440 kts | 327° |
| 2026-05-08 21:22 | -12.57666 | -66.28390 | 31857 ft | 440 kts | 327° |
| 2026-05-08 21:22 | -12.52382 | -66.31575 | 31858 ft | 439 kts | 327° |
| 2026-05-08 21:23 | -12.47107 | -66.34753 | 31858 ft | 439 kts | 327° |
| 2026-05-08 21:23 | -12.41824 | -66.37935 | 31858 ft | 440 kts | 327° |
| 2026-05-08 21:24 | -12.36548 | -66.41112 | 31858 ft | 441 kts | 327° |
| 2026-05-08 21:24 | -12.31269 | -66.44287 | 31858 ft | 440 kts | 327° |
| 2026-05-08 21:25 | -12.26000 | -66.47456 | 31858 ft | 440 kts | 327° |
| 2026-05-08 21:25 | -12.20694 | -66.50645 | 31858 ft | 440 kts | 327° |
| 2026-05-08 21:26 | -12.15454 | -66.53794 | 31858 ft | 440 kts | 327° |
| 2026-05-08 21:26 | -12.10177 | -66.56963 | 31858 ft | 440 kts | 327° |
| 2026-05-08 21:27 | -12.04871 | -66.60148 | 31858 ft | 440 kts | 327° |
| 2026-05-08 21:27 | -11.99583 | -66.63321 | 31858 ft | 440 kts | 327° |
| 2026-05-08 21:28 | -11.94295 | -66.66493 | 31858 ft | 442 kts | 327° |
| 2026-05-08 21:28 | -11.88939 | -66.69702 | 31858 ft | 442 kts | 327° |
| 2026-05-08 21:29 | -11.83645 | -66.72875 | 31858 ft | 442 kts | 327° |
| 2026-05-08 21:29 | -11.78333 | -66.76056 | 31858 ft | 442 kts | 327° |
| 2026-05-08 21:30 | -11.72998 | -66.79250 | 31858 ft | 443 kts | 327° |
| 2026-05-08 21:30 | -11.67709 | -66.82414 | 31858 ft | 443 kts | 327° |
| 2026-05-08 21:31 | -11.62378 | -66.85603 | 31858 ft | 444 kts | 327° |
| 2026-05-08 21:31 | -11.57042 | -66.88794 | 31858 ft | 445 kts | 327° |
| 2026-05-08 21:32 | -11.51696 | -66.91987 | 31858 ft | 445 kts | 327° |
| 2026-05-08 21:32 | -11.46345 | -66.95182 | 31858 ft | 444 kts | 327° |
| 2026-05-08 21:33 | -11.41003 | -66.98371 | 31857 ft | 445 kts | 327° |
| 2026-05-08 21:33 | -11.35675 | -67.01552 | 31858 ft | 445 kts | 327° |
| 2026-05-08 21:34 | -11.30296 | -67.04759 | 31858 ft | 446 kts | 327° |
| 2026-05-08 21:34 | -11.24937 | -67.07954 | 31858 ft | 446 kts | 327° |
| 2026-05-08 21:35 | -11.19595 | -67.11137 | 31858 ft | 446 kts | 327° |
| 2026-05-08 21:35 | -11.14236 | -67.14329 | 31858 ft | 446 kts | 327° |
| 2026-05-08 21:36 | -11.08866 | -67.17527 | 31858 ft | 447 kts | 327° |
| 2026-05-08 21:36 | -11.03483 | -67.20731 | 31858 ft | 447 kts | 327° |
| 2026-05-08 21:37 | -10.98113 | -67.23926 | 31858 ft | 448 kts | 327° |
| 2026-05-08 21:37 | -10.92718 | -67.27134 | 31858 ft | 448 kts | 327° |
| 2026-05-08 21:38 | -10.87323 | -67.30341 | 31857 ft | 448 kts | 327° |
| 2026-05-08 21:38 | -10.81949 | -67.33534 | 31858 ft | 448 kts | 327° |
| 2026-05-08 21:39 | -10.76528 | -67.36753 | 31858 ft | 449 kts | 327° |
| 2026-05-08 21:39 | -10.71147 | -67.39947 | 31858 ft | 449 kts | 327° |
| 2026-05-08 21:40 | -10.65743 | -67.43154 | 31857 ft | 449 kts | 327° |
| 2026-05-08 21:40 | -10.60333 | -67.46362 | 31858 ft | 449 kts | 327° |
| 2026-05-08 21:41 | -10.54901 | -67.49583 | 31988 ft | 451 kts | 327° |
| 2026-05-08 21:41 | -10.52192 | -67.51189 | 32297 ft | 450 kts | 327° |
| 2026-05-08 21:41 | -10.49530 | -67.52769 | 32502 ft | 451 kts | 326° |
| 2026-05-08 21:41 | -10.46825 | -67.54391 | 32743 ft | 452 kts | 326° |
| 2026-05-08 21:42 | -10.44103 | -67.56061 | 32998 ft | 452 kts | 325° |
| 2026-05-08 21:42 | -10.41419 | -67.57717 | 33235 ft | 452 kts | 325° |
| 2026-05-08 21:42 | -10.38725 | -67.59369 | 33541 ft | 450 kts | 325° |
| 2026-05-08 21:42 | -10.36035 | -67.61006 | 33794 ft | 450 kts | 325° |
| 2026-05-08 21:43 | -10.30638 | -67.64296 | 33857 ft | 454 kts | 325° |
| 2026-05-08 21:43 | -10.25221 | -67.67609 | 33857 ft | 452 kts | 325° |
| 2026-05-08 21:44 | -10.19829 | -67.70900 | 33858 ft | 451 kts | 325° |
| 2026-05-08 21:44 | -10.14429 | -67.74196 | 33858 ft | 452 kts | 325° |
| 2026-05-08 21:45 | -10.09046 | -67.77480 | 33858 ft | 452 kts | 325° |
| 2026-05-08 21:45 | -10.03663 | -67.80761 | 33858 ft | 452 kts | 325° |
| 2026-05-08 21:46 | -9.98278 | -67.84043 | 33858 ft | 452 kts | 325° |
| 2026-05-08 21:46 | -9.92860 | -67.87344 | 33858 ft | 452 kts | 325° |
| 2026-05-08 21:47 | -9.87236 | -67.90303 | 33856 ft | 457 kts | 334° |
| 2026-05-08 21:47 | -9.81149 | -67.92234 | 33858 ft | 461 kts | 340° |
| 2026-05-08 21:48 | -9.74991 | -67.94022 | 33856 ft | 461 kts | 340° |
| 2026-05-08 21:48 | -9.68783 | -67.95828 | 33854 ft | 461 kts | 340° |
| 2026-05-08 21:49 | -9.62588 | -67.97594 | 33852 ft | 461 kts | 340° |
| 2026-05-08 21:49 | -9.56373 | -67.99365 | 33850 ft | 461 kts | 340° |
| 2026-05-08 21:50 | -9.50192 | -68.01119 | 33848 ft | 462 kts | 340° |
| 2026-05-08 21:50 | -9.43981 | -68.02882 | 33846 ft | 464 kts | 340° |
| 2026-05-08 21:51 | -9.37772 | -68.04634 | 33843 ft | 464 kts | 340° |
| 2026-05-08 21:51 | -9.31489 | -68.06408 | 33842 ft | 464 kts | 340° |
| 2026-05-08 21:52 | -9.25245 | -68.08170 | 33840 ft | 464 kts | 340° |
| 2026-05-08 21:52 | -9.19006 | -68.09970 | 33838 ft | 464 kts | 339° |
| 2026-05-08 21:53 | -9.12811 | -68.11848 | 33836 ft | 465 kts | 339° |
| 2026-05-08 21:53 | -9.06569 | -68.13718 | 33833 ft | 465 kts | 339° |
| 2026-05-08 21:54 | -9.00355 | -68.15581 | 33831 ft | 465 kts | 339° |
| 2026-05-08 21:54 | -8.94119 | -68.17448 | 33831 ft | 466 kts | 339° |
| 2026-05-08 21:55 | -8.87873 | -68.19316 | 33831 ft | 466 kts | 339° |
| 2026-05-08 21:56 | -8.78533 | -68.22108 | 33831 ft | 466 kts | 339° |
| 2026-05-08 21:56 | -8.72285 | -68.23975 | 33831 ft | 466 kts | 339° |
| 2026-05-08 21:57 | -8.66037 | -68.25841 | 33831 ft | 466 kts | 339° |
| 2026-05-08 21:57 | -8.59801 | -68.27702 | 33831 ft | 466 kts | 339° |
| 2026-05-08 21:58 | -8.53539 | -68.29572 | 33831 ft | 466 kts | 339° |
| 2026-05-08 21:58 | -8.47316 | -68.31431 | 33831 ft | 466 kts | 339° |
| 2026-05-08 21:59 | -8.41057 | -68.33296 | 33831 ft | 466 kts | 339° |
| 2026-05-08 21:59 | -8.34798 | -68.35162 | 33831 ft | 467 kts | 339° |
| 2026-05-08 22:00 | -8.28564 | -68.37020 | 33831 ft | 467 kts | 339° |
| 2026-05-08 22:00 | -8.22262 | -68.38898 | 33831 ft | 467 kts | 339° |
| 2026-05-08 22:01 | -8.16058 | -68.40745 | 33831 ft | 467 kts | 339° |
| 2026-05-08 22:01 | -8.09797 | -68.42610 | 33831 ft | 467 kts | 339° |
| 2026-05-08 22:02 | -8.03542 | -68.44472 | 33831 ft | 467 kts | 339° |
| 2026-05-08 22:02 | -7.97289 | -68.46333 | 33831 ft | 467 kts | 339° |
| 2026-05-08 22:03 | -7.91028 | -68.48196 | 33831 ft | 468 kts | 339° |
| 2026-05-08 22:03 | -7.84795 | -68.50049 | 33831 ft | 467 kts | 339° |
| 2026-05-08 22:04 | -7.79152 | -68.51726 | 33831 ft | 467 kts | 339° |
| 2026-05-08 22:04 | -7.72900 | -68.53584 | 33831 ft | 468 kts | 339° |
| 2026-05-08 22:05 | -7.66660 | -68.55438 | 33830 ft | 468 kts | 339° |
| 2026-05-08 22:05 | -7.60379 | -68.57304 | 33831 ft | 469 kts | 339° |
| 2026-05-08 22:06 | -7.54078 | -68.59167 | 33831 ft | 469 kts | 339° |
| 2026-05-08 22:06 | -7.47773 | -68.61031 | 33831 ft | 469 kts | 339° |
| 2026-05-08 22:07 | -7.41521 | -68.62880 | 33831 ft | 469 kts | 339° |
| 2026-05-08 22:07 | -7.35198 | -68.64749 | 33831 ft | 470 kts | 339° |
| 2026-05-08 22:08 | -7.28847 | -68.66627 | 33831 ft | 470 kts | 340° |
| 2026-05-08 22:08 | -7.22573 | -68.68479 | 33831 ft | 470 kts | 339° |
| 2026-05-08 22:09 | -7.16265 | -68.70344 | 33830 ft | 470 kts | 340° |
| 2026-05-08 22:09 | -7.09990 | -68.72196 | 33831 ft | 471 kts | 340° |
| 2026-05-08 22:10 | -7.03658 | -68.74065 | 33831 ft | 471 kts | 340° |
| 2026-05-08 22:10 | -6.97394 | -68.75913 | 33831 ft | 471 kts | 340° |
| 2026-05-08 22:11 | -6.91064 | -68.77780 | 33831 ft | 471 kts | 340° |
| 2026-05-08 22:11 | -6.84763 | -68.79639 | 33831 ft | 471 kts | 340° |
| 2026-05-08 22:12 | -6.78464 | -68.81497 | 33831 ft | 471 kts | 340° |
| 2026-05-08 22:12 | -6.72126 | -68.83365 | 33831 ft | 472 kts | 340° |
| 2026-05-08 22:13 | -6.65819 | -68.85224 | 33831 ft | 471 kts | 340° |
| 2026-05-08 22:13 | -6.59530 | -68.87073 | 33831 ft | 471 kts | 340° |
| 2026-05-08 22:14 | -6.53191 | -68.88936 | 33831 ft | 471 kts | 339° |
| 2026-05-08 22:14 | -6.46870 | -68.90810 | 33831 ft | 471 kts | 339° |
| 2026-05-08 22:15 | -6.40601 | -68.92668 | 33831 ft | 471 kts | 339° |
| 2026-05-08 22:15 | -6.34300 | -68.94534 | 33831 ft | 471 kts | 339° |
| 2026-05-08 22:16 | -6.27957 | -68.96412 | 33831 ft | 472 kts | 339° |
| 2026-05-08 22:16 | -6.21655 | -68.98277 | 33831 ft | 472 kts | 339° |
| 2026-05-08 22:17 | -6.15362 | -69.00139 | 33831 ft | 472 kts | 339° |
| 2026-05-08 22:17 | -6.09001 | -69.02020 | 33831 ft | 472 kts | 339° |
| 2026-05-08 22:18 | -6.02665 | -69.03896 | 33831 ft | 472 kts | 339° |
| 2026-05-08 22:18 | -5.96345 | -69.05764 | 33830 ft | 472 kts | 340° |
| 2026-05-08 22:19 | -5.90050 | -69.07627 | 33831 ft | 471 kts | 340° |
| 2026-05-08 22:19 | -5.83727 | -69.09493 | 33831 ft | 472 kts | 339° |
| 2026-05-08 22:20 | -5.77356 | -69.11378 | 33831 ft | 473 kts | 340° |
| 2026-05-08 22:20 | -5.71039 | -69.13241 | 33831 ft | 473 kts | 340° |
| 2026-05-08 22:21 | -5.64732 | -69.15102 | 33831 ft | 472 kts | 339° |
| 2026-05-08 22:21 | -5.58394 | -69.16972 | 33831 ft | 472 kts | 339° |
| 2026-05-08 22:22 | -5.52018 | -69.18855 | 33831 ft | 473 kts | 339° |
| 2026-05-08 22:22 | -5.45699 | -69.20719 | 33831 ft | 472 kts | 339° |
| 2026-05-08 22:23 | -5.39362 | -69.22590 | 33831 ft | 472 kts | 340° |
| 2026-05-08 22:23 | -5.33022 | -69.24459 | 33831 ft | 472 kts | 340° |
| 2026-05-08 22:24 | -5.26704 | -69.26322 | 33831 ft | 472 kts | 340° |
| 2026-05-08 22:24 | -5.20365 | -69.28191 | 33831 ft | 472 kts | 340° |
| 2026-05-08 22:25 | -5.14023 | -69.30060 | 33831 ft | 472 kts | 340° |
| 2026-05-08 22:25 | -5.07698 | -69.31924 | 33831 ft | 472 kts | 340° |
| 2026-05-08 22:26 | -5.01385 | -69.33785 | 33831 ft | 472 kts | 340° |
| 2026-05-08 22:26 | -4.95050 | -69.35651 | 33831 ft | 472 kts | 340° |
| 2026-05-08 22:27 | -4.88752 | -69.37505 | 33831 ft | 472 kts | 340° |
| 2026-05-08 22:27 | -4.82297 | -69.39406 | 33831 ft | 472 kts | 340° |
| 2026-05-08 22:28 | -4.75988 | -69.41263 | 33831 ft | 472 kts | 340° |
| 2026-05-08 22:28 | -4.69633 | -69.43133 | 33831 ft | 472 kts | 340° |
| 2026-05-08 22:29 | -4.63293 | -69.45024 | 33831 ft | 472 kts | 339° |
| 2026-05-08 22:29 | -4.56964 | -69.46928 | 33831 ft | 472 kts | 339° |
| 2026-05-08 22:30 | -4.50653 | -69.48820 | 33831 ft | 473 kts | 339° |
| 2026-05-08 22:30 | -4.44336 | -69.50715 | 33831 ft | 473 kts | 339° |
| 2026-05-08 22:31 | -4.38019 | -69.52608 | 33831 ft | 473 kts | 339° |
| 2026-05-08 22:31 | -4.31658 | -69.54515 | 33831 ft | 473 kts | 339° |
| 2026-05-08 22:32 | -4.25368 | -69.56400 | 33831 ft | 472 kts | 339° |
| 2026-05-08 22:32 | -4.19044 | -69.58294 | 33831 ft | 472 kts | 339° |
| 2026-05-08 22:33 | -4.12697 | -69.60195 | 33831 ft | 472 kts | 339° |
| 2026-05-08 22:33 | -4.06372 | -69.62093 | 33831 ft | 472 kts | 339° |
| 2026-05-08 22:34 | -4.00039 | -69.63992 | 33831 ft | 473 kts | 339° |
| 2026-05-08 22:34 | -3.93756 | -69.65874 | 33831 ft | 473 kts | 340° |
| 2026-05-08 22:35 | -3.87408 | -69.67776 | 33831 ft | 473 kts | 340° |
| 2026-05-08 22:35 | -3.81055 | -69.69679 | 33831 ft | 473 kts | 340° |
| 2026-05-08 22:36 | -3.74738 | -69.71571 | 33831 ft | 473 kts | 340° |
| 2026-05-08 22:36 | -3.68431 | -69.73460 | 33831 ft | 473 kts | 340° |
| 2026-05-08 22:37 | -3.62087 | -69.75361 | 33831 ft | 473 kts | 340° |
| 2026-05-08 22:37 | -3.55796 | -69.77246 | 33839 ft | 472 kts | 340° |
| 2026-05-08 22:38 | -3.49478 | -69.79137 | 33858 ft | 472 kts | 340° |
| 2026-05-08 22:38 | -3.43162 | -69.81009 | 33858 ft | 473 kts | 340° |
| 2026-05-08 22:39 | -3.36819 | -69.82866 | 33858 ft | 472 kts | 340° |
| 2026-05-08 22:39 | -3.30500 | -69.84724 | 33858 ft | 472 kts | 340° |
| 2026-05-08 22:40 | -3.24165 | -69.86586 | 33858 ft | 472 kts | 340° |
| 2026-05-08 22:40 | -3.17868 | -69.88437 | 33858 ft | 473 kts | 340° |
| 2026-05-08 22:41 | -3.11512 | -69.90306 | 33858 ft | 472 kts | 340° |
| 2026-05-08 22:41 | -3.05210 | -69.92156 | 33858 ft | 472 kts | 340° |
| 2026-05-08 22:42 | -2.98897 | -69.94012 | 33858 ft | 473 kts | 340° |
| 2026-05-08 22:42 | -2.92538 | -69.95879 | 33858 ft | 473 kts | 340° |
| 2026-05-08 22:43 | -2.86167 | -69.97750 | 33858 ft | 473 kts | 340° |
| 2026-05-08 22:43 | -2.79766 | -69.99631 | 33858 ft | 473 kts | 340° |
| 2026-05-08 22:44 | -2.73462 | -70.01502 | 33858 ft | 475 kts | 339° |
| 2026-05-08 22:44 | -2.67335 | -70.04009 | 33858 ft | 471 kts | 330° |
| 2026-05-08 22:45 | -2.61403 | -70.06844 | 33858 ft | 472 kts | 331° |
| 2026-05-08 22:45 | -2.55456 | -70.09624 | 33858 ft | 471 kts | 331° |
| 2026-05-08 22:46 | -2.49478 | -70.12445 | 33848 ft | 471 kts | 331° |
| 2026-05-08 22:46 | -2.43524 | -70.15258 | 33838 ft | 471 kts | 331° |
| 2026-05-08 22:47 | -2.37600 | -70.18061 | 33831 ft | 472 kts | 331° |
| 2026-05-08 22:47 | -2.31661 | -70.20869 | 33830 ft | 471 kts | 331° |
| 2026-05-08 22:48 | -2.25705 | -70.23686 | 33831 ft | 471 kts | 331° |
| 2026-05-08 22:48 | -2.19743 | -70.26507 | 33831 ft | 471 kts | 331° |
| 2026-05-08 22:49 | -2.13784 | -70.29326 | 33831 ft | 471 kts | 331° |
| 2026-05-08 22:49 | -2.04866 | -70.33546 | 33831 ft | 471 kts | 331° |
| 2026-05-08 22:50 | -1.98884 | -70.36375 | 33831 ft | 471 kts | 331° |
| 2026-05-08 22:50 | -1.92910 | -70.39202 | 33831 ft | 471 kts | 331° |
| 2026-05-08 22:51 | -1.86950 | -70.42021 | 33831 ft | 471 kts | 331° |
| 2026-05-08 22:51 | -1.80993 | -70.44838 | 33831 ft | 471 kts | 331° |
| 2026-05-08 22:52 | -1.74997 | -70.47674 | 33831 ft | 471 kts | 331° |
| 2026-05-08 22:52 | -1.69053 | -70.50486 | 33831 ft | 471 kts | 331° |
| 2026-05-08 22:53 | -1.63081 | -70.53310 | 33831 ft | 471 kts | 331° |
| 2026-05-08 22:53 | -1.57104 | -70.56136 | 33831 ft | 471 kts | 331° |
| 2026-05-08 22:54 | -1.51134 | -70.58958 | 33831 ft | 471 kts | 331° |
| 2026-05-08 22:54 | -1.45202 | -70.61762 | 33831 ft | 471 kts | 331° |
| 2026-05-08 22:55 | -1.39256 | -70.64574 | 33831 ft | 471 kts | 331° |
| 2026-05-08 22:55 | -1.33275 | -70.67401 | 33831 ft | 471 kts | 331° |
| 2026-05-08 22:56 | -1.27314 | -70.70222 | 33831 ft | 470 kts | 331° |
| 2026-05-08 22:56 | -1.21382 | -70.73024 | 33831 ft | 470 kts | 331° |
| 2026-05-08 22:57 | -1.15470 | -70.75818 | 33831 ft | 470 kts | 331° |
| 2026-05-08 22:57 | -1.09539 | -70.78620 | 33831 ft | 470 kts | 331° |
| 2026-05-08 22:58 | -1.03649 | -70.81405 | 33831 ft | 470 kts | 331° |
| 2026-05-08 22:58 | -0.97683 | -70.84225 | 33831 ft | 470 kts | 331° |
| 2026-05-08 22:59 | -0.91745 | -70.87031 | 33830 ft | 469 kts | 331° |
| 2026-05-08 22:59 | -0.85777 | -70.89850 | 33831 ft | 469 kts | 331° |
| 2026-05-08 23:00 | -0.79893 | -70.92631 | 33831 ft | 469 kts | 331° |
| 2026-05-08 23:00 | -0.73959 | -70.95435 | 33831 ft | 469 kts | 331° |
| 2026-05-08 23:01 | -0.68073 | -70.98216 | 33831 ft | 469 kts | 331° |
| 2026-05-08 23:01 | -0.62183 | -71.00999 | 33831 ft | 469 kts | 331° |
| 2026-05-08 23:02 | -0.56237 | -71.03808 | 33831 ft | 469 kts | 331° |
| 2026-05-08 23:02 | -0.50360 | -71.06584 | 33831 ft | 469 kts | 331° |
| 2026-05-08 23:03 | -0.44455 | -71.09377 | 33831 ft | 468 kts | 331° |
| 2026-05-08 23:03 | -0.38564 | -71.12159 | 33831 ft | 468 kts | 331° |
| 2026-05-08 23:04 | -0.32646 | -71.14954 | 33831 ft | 468 kts | 331° |
| 2026-05-08 23:04 | -0.26762 | -71.17734 | 33831 ft | 467 kts | 331° |
| 2026-05-08 23:05 | -0.20899 | -71.20503 | 33831 ft | 467 kts | 331° |
| 2026-05-08 23:05 | -0.15000 | -71.23290 | 33831 ft | 467 kts | 331° |
| 2026-05-08 23:06 | -0.09120 | -71.26069 | 33831 ft | 467 kts | 331° |
| 2026-05-08 23:06 | -0.03235 | -71.28850 | 33831 ft | 467 kts | 331° |
| 2026-05-08 23:07 | 0.02659 | -71.31635 | 33831 ft | 467 kts | 331° |
| 2026-05-08 23:07 | 0.08511 | -71.34402 | 33831 ft | 466 kts | 331° |
| 2026-05-08 23:08 | 0.14408 | -71.37188 | 33831 ft | 466 kts | 331° |
| 2026-05-08 23:08 | 0.20300 | -71.39972 | 33831 ft | 466 kts | 331° |
| 2026-05-08 23:09 | 0.26150 | -71.42737 | 33831 ft | 466 kts | 331° |
| 2026-05-08 23:09 | 0.32029 | -71.45515 | 33831 ft | 466 kts | 331° |
| 2026-05-08 23:10 | 0.37890 | -71.48285 | 33831 ft | 466 kts | 331° |
| 2026-05-08 23:10 | 0.43755 | -71.51057 | 33831 ft | 466 kts | 331° |
| 2026-05-08 23:11 | 0.49619 | -71.53828 | 33831 ft | 466 kts | 331° |
| 2026-05-08 23:11 | 0.55526 | -71.56621 | 33831 ft | 466 kts | 331° |
| 2026-05-08 23:12 | 0.61419 | -71.59406 | 33830 ft | 467 kts | 331° |
| 2026-05-08 23:12 | 0.67303 | -71.62188 | 33831 ft | 467 kts | 331° |
| 2026-05-08 23:13 | 0.73189 | -71.64970 | 33831 ft | 467 kts | 331° |
| 2026-05-08 23:13 | 0.79110 | -71.67768 | 33831 ft | 467 kts | 331° |
| 2026-05-08 23:14 | 0.84972 | -71.70539 | 33831 ft | 467 kts | 331° |
| 2026-05-08 23:14 | 0.90884 | -71.73334 | 33831 ft | 467 kts | 331° |
| 2026-05-08 23:15 | 0.96750 | -71.76106 | 33831 ft | 467 kts | 331° |
| 2026-05-08 23:15 | 1.02636 | -71.78889 | 33831 ft | 468 kts | 331° |
| 2026-05-08 23:16 | 1.08521 | -71.81671 | 33831 ft | 468 kts | 331° |
| 2026-05-08 23:16 | 1.14421 | -71.84460 | 33831 ft | 467 kts | 331° |
| 2026-05-08 23:17 | 1.20331 | -71.87255 | 33831 ft | 467 kts | 331° |
| 2026-05-08 23:17 | 1.26210 | -71.90035 | 33831 ft | 468 kts | 331° |
| 2026-05-08 23:18 | 1.32117 | -71.92828 | 33831 ft | 468 kts | 331° |
| 2026-05-08 23:18 | 1.37929 | -71.95746 | 33831 ft | 465 kts | 326° |
| 2026-05-08 23:19 | 1.43466 | -71.99099 | 33831 ft | 465 kts | 326° |
| 2026-05-08 23:19 | 1.49068 | -72.02413 | 33830 ft | 465 kts | 326° |
| 2026-05-08 23:20 | 1.54636 | -72.05707 | 33831 ft | 465 kts | 326° |
| 2026-05-08 23:20 | 1.60206 | -72.09002 | 33831 ft | 465 kts | 326° |
| 2026-05-08 23:21 | 1.65796 | -72.12305 | 33831 ft | 466 kts | 326° |
| 2026-05-08 23:21 | 1.71383 | -72.15609 | 33831 ft | 466 kts | 326° |
| 2026-05-08 23:22 | 1.76969 | -72.18907 | 33831 ft | 466 kts | 326° |
| 2026-05-08 23:22 | 1.82553 | -72.22205 | 33831 ft | 465 kts | 326° |
| 2026-05-08 23:23 | 1.88135 | -72.25502 | 33831 ft | 465 kts | 326° |
| 2026-05-08 23:23 | 1.93728 | -72.28805 | 33831 ft | 465 kts | 326° |
| 2026-05-08 23:24 | 1.99315 | -72.32107 | 33831 ft | 465 kts | 326° |
| 2026-05-08 23:24 | 2.04934 | -72.35429 | 33831 ft | 465 kts | 326° |
| 2026-05-08 23:25 | 2.10512 | -72.38724 | 33830 ft | 465 kts | 326° |
| 2026-05-08 23:25 | 2.16181 | -72.42072 | 33831 ft | 465 kts | 326° |
| 2026-05-08 23:26 | 2.21739 | -72.45359 | 33831 ft | 465 kts | 326° |
| 2026-05-08 23:26 | 2.27327 | -72.48659 | 33831 ft | 465 kts | 326° |
| 2026-05-08 23:27 | 2.32908 | -72.51959 | 33831 ft | 464 kts | 326° |
| 2026-05-08 23:27 | 2.38468 | -72.55245 | 33831 ft | 464 kts | 326° |
| 2026-05-08 23:28 | 2.44034 | -72.58536 | 33831 ft | 464 kts | 326° |
| 2026-05-08 23:28 | 2.49621 | -72.61840 | 33831 ft | 464 kts | 326° |
| 2026-05-08 23:29 | 2.55238 | -72.65084 | 33830 ft | 465 kts | 330° |
| 2026-05-08 23:29 | 2.61119 | -72.67857 | 33831 ft | 466 kts | 332° |
| 2026-05-08 23:30 | 2.66979 | -72.70650 | 33831 ft | 465 kts | 332° |
| 2026-05-08 23:30 | 2.72833 | -72.73473 | 33831 ft | 465 kts | 332° |
| 2026-05-08 23:31 | 2.78641 | -72.76266 | 33831 ft | 465 kts | 332° |
| 2026-05-08 23:31 | 2.84516 | -72.79104 | 33831 ft | 465 kts | 332° |
| 2026-05-08 23:32 | 2.90369 | -72.81931 | 33831 ft | 465 kts | 332° |
| 2026-05-08 23:32 | 2.96195 | -72.84744 | 33831 ft | 465 kts | 332° |
| 2026-05-08 23:33 | 3.02068 | -72.87585 | 33831 ft | 465 kts | 332° |
| 2026-05-08 23:33 | 3.07878 | -72.90395 | 33831 ft | 465 kts | 332° |
| 2026-05-08 23:34 | 3.13771 | -72.93243 | 33831 ft | 465 kts | 332° |
| 2026-05-08 23:34 | 3.19722 | -72.96124 | 33831 ft | 465 kts | 332° |
| 2026-05-08 23:35 | 3.25593 | -72.98965 | 33834 ft | 465 kts | 332° |
| 2026-05-08 23:35 | 3.31419 | -73.01783 | 33837 ft | 464 kts | 332° |
| 2026-05-08 23:36 | 3.37273 | -73.04616 | 33840 ft | 464 kts | 332° |
| 2026-05-08 23:36 | 3.43108 | -73.07443 | 33843 ft | 464 kts | 332° |
| 2026-05-08 23:37 | 3.48929 | -73.10259 | 33846 ft | 464 kts | 332° |
| 2026-05-08 23:37 | 3.54739 | -73.13072 | 33879 ft | 463 kts | 332° |
| 2026-05-08 23:38 | 3.60548 | -73.15887 | 34012 ft | 463 kts | 332° |
| 2026-05-08 23:38 | 3.66364 | -73.18703 | 34182 ft | 463 kts | 332° |
| 2026-05-08 23:39 | 3.72185 | -73.21526 | 34288 ft | 464 kts | 332° |
| 2026-05-08 23:39 | 3.78009 | -73.24348 | 34290 ft | 463 kts | 332° |
| 2026-05-08 23:40 | 3.83770 | -73.27136 | 34290 ft | 462 kts | 332° |
| 2026-05-08 23:40 | 3.89567 | -73.29946 | 34290 ft | 462 kts | 332° |
| 2026-05-08 23:41 | 3.95406 | -73.32777 | 34290 ft | 462 kts | 332° |
| 2026-05-08 23:41 | 4.01215 | -73.35596 | 34290 ft | 462 kts | 332° |
| 2026-05-08 23:42 | 4.06510 | -73.39188 | 34289 ft | 458 kts | 314° |
| 2026-05-08 23:42 | 4.08539 | -73.41609 | 34292 ft | 455 kts | 303° |
| 2026-05-08 23:42 | 4.10232 | -73.44317 | 34291 ft | 455 kts | 299° |
| 2026-05-08 23:43 | 4.13613 | -73.49922 | 34290 ft | 456 kts | 300° |
| 2026-05-08 23:43 | 4.16948 | -73.55343 | 34290 ft | 455 kts | 300° |
| 2026-05-08 23:44 | 4.19978 | -73.60332 | 34290 ft | 455 kts | 300° |
| 2026-05-08 23:44 | 4.23714 | -73.65879 | 34291 ft | 457 kts | 307° |
| 2026-05-08 23:45 | 4.28188 | -73.70558 | 34290 ft | 458 kts | 316° |
| 2026-05-08 23:45 | 4.30510 | -73.72715 | 33756 ft | 455 kts | 315° |
| 2026-05-08 23:45 | 4.32803 | -73.74870 | 32908 ft | 455 kts | 315° |
| 2026-05-08 23:46 | 4.35088 | -73.77041 | 32034 ft | 455 kts | 314° |
| 2026-05-08 23:46 | 4.37419 | -73.79243 | 31109 ft | 456 kts | 314° |
| 2026-05-08 23:46 | 4.39743 | -73.81421 | 30167 ft | 457 kts | 314° |
| 2026-05-08 23:46 | 4.42071 | -73.83598 | 29184 ft | 459 kts | 315° |
| 2026-05-08 23:47 | 4.44409 | -73.85777 | 28160 ft | 461 kts | 315° |
| 2026-05-08 23:47 | 4.46773 | -73.87972 | 27080 ft | 463 kts | 315° |
| 2026-05-08 23:47 | 4.49118 | -73.90145 | 26314 ft | 459 kts | 316° |
| 2026-05-08 23:47 | 4.51476 | -73.92326 | 25595 ft | 462 kts | 316° |
| 2026-05-08 23:48 | 4.53819 | -73.94487 | 24843 ft | 455 kts | 316° |
| 2026-05-08 23:48 | 4.56131 | -73.96615 | 24291 ft | 443 kts | 316° |
| 2026-05-08 23:48 | 4.58301 | -73.98745 | 23920 ft | 428 kts | 311° |
| 2026-05-08 23:48 | 4.60091 | -74.01038 | 23746 ft | 409 kts | 302° |
| 2026-05-08 23:49 | 4.61372 | -74.03523 | 23161 ft | 403 kts | 290° |
| 2026-05-08 23:49 | 4.62236 | -74.06163 | 22566 ft | 398 kts | 287° |
| 2026-05-08 23:49 | 4.63072 | -74.08814 | 21974 ft | 393 kts | 288° |
| 2026-05-08 23:49 | 4.63939 | -74.11417 | 21395 ft | 388 kts | 288° |
| 2026-05-08 23:50 | 4.64788 | -74.13967 | 20827 ft | 383 kts | 288° |
| 2026-05-08 23:50 | 4.65614 | -74.16484 | 20267 ft | 379 kts | 288° |
| 2026-05-08 23:50 | 4.66437 | -74.18995 | 19710 ft | 374 kts | 288° |
| 2026-05-08 23:50 | 4.67236 | -74.21433 | 19365 ft | 364 kts | 288° |
| 2026-05-08 23:51 | 4.68010 | -74.23795 | 19101 ft | 354 kts | 288° |
| 2026-05-08 23:51 | 4.68788 | -74.26174 | 18602 ft | 356 kts | 288° |
| 2026-05-08 23:51 | 4.69551 | -74.28507 | 18360 ft | 344 kts | 288° |
| 2026-05-08 23:51 | 4.70282 | -74.30745 | 18342 ft | 329 kts | 288° |
| 2026-05-08 23:52 | 4.70995 | -74.32928 | 18347 ft | 331 kts | 288° |
| 2026-05-08 23:52 | 4.71711 | -74.35124 | 18294 ft | 336 kts | 288° |
| 2026-05-08 23:52 | 4.72441 | -74.37363 | 18031 ft | 335 kts | 288° |
| 2026-05-08 23:52 | 4.73202 | -74.39564 | 17685 ft | 329 kts | 292° |
| 2026-05-08 23:53 | 4.74250 | -74.41573 | 17368 ft | 323 kts | 304° |
| 2026-05-08 23:53 | 4.75658 | -74.43331 | 17009 ft | 322 kts | 314° |
| 2026-05-08 23:53 | 4.77285 | -74.44924 | 16585 ft | 325 kts | 316° |
| 2026-05-08 23:53 | 4.78902 | -74.46520 | 16165 ft | 321 kts | 315° |
| 2026-05-08 23:54 | 4.80544 | -74.48032 | 15746 ft | 318 kts | 324° |
| 2026-05-08 23:54 | 4.82501 | -74.48991 | 15334 ft | 313 kts | 347° |
| 2026-05-08 23:54 | 4.84645 | -74.49120 | 14930 ft | 309 kts | 7° |
| 2026-05-08 23:55 | 4.88482 | -74.47375 | 14127 ft | 305 kts | 48° |
| 2026-05-08 23:55 | 4.89651 | -74.45603 | 13747 ft | 300 kts | 65° |
| 2026-05-08 23:55 | 4.90331 | -74.43645 | 13502 ft | 291 kts | 82° |
| 2026-05-08 23:55 | 4.90177 | -74.41696 | 13330 ft | 280 kts | 110° |
| 2026-05-08 23:56 | 4.89211 | -74.40012 | 12943 ft | 279 kts | 129° |
| 2026-05-08 23:56 | 4.87807 | -74.38657 | 12555 ft | 278 kts | 140° |
| 2026-05-08 23:56 | 4.86432 | -74.37339 | 12347 ft | 269 kts | 127° |
| 2026-05-08 23:56 | 4.85382 | -74.35876 | 12347 ft | 252 kts | 124° |
| 2026-05-08 23:57 | 4.84379 | -74.34508 | 12338 ft | 233 kts | 127° |
| 2026-05-08 23:57 | 4.83434 | -74.33279 | 12332 ft | 209 kts | 127° |
| 2026-05-08 23:57 | 4.82601 | -74.32184 | 12109 ft | 186 kts | 126° |
| 2026-05-08 23:57 | 4.81867 | -74.31202 | 11908 ft | 171 kts | 126° |
| 2026-05-08 23:58 | 4.81133 | -74.30229 | 11762 ft | 177 kts | 126° |
| 2026-05-08 23:58 | 4.80387 | -74.29258 | 11446 ft | 176 kts | 127° |
| 2026-05-08 23:58 | 4.79653 | -74.28281 | 11196 ft | 175 kts | 126° |
| 2026-05-08 23:58 | 4.78915 | -74.27304 | 10947 ft | 175 kts | 127° |
| 2026-05-08 23:59 | 4.78172 | -74.26323 | 10706 ft | 176 kts | 127° |
| 2026-05-08 23:59 | 4.77435 | -74.25352 | 10464 ft | 176 kts | 127° |
| 2026-05-08 23:59 | 4.76687 | -74.24359 | 10224 ft | 176 kts | 127° |
| 2026-05-08 23:59 | 4.75948 | -74.23391 | 9976 ft | 176 kts | 127° |
| 2026-05-09 00:00 | 4.75213 | -74.22405 | 9735 ft | 178 kts | 127° |
| 2026-05-09 00:00 | 4.74455 | -74.21415 | 9493 ft | 177 kts | 128° |
| 2026-05-09 00:00 | 4.73709 | -74.20430 | 9253 ft | 177 kts | 127° |
| 2026-05-09 00:00 | 4.72974 | -74.19455 | 9018 ft | 176 kts | 127° |
| 2026-05-09 00:01 | 4.72221 | -74.18470 | 8778 ft | 176 kts | 127° |
| 2026-05-09 00:01 | 4.71596 | -74.17630 | 8601 ft | 174 kts | 127° |
| 2026-05-09 00:01 | 4.70860 | -74.16663 | 8374 ft | 170 kts | 127° |
| 2026-05-09 00:01 | 4.70259 | -74.15870 | 8363 ft | 104 kts | 128° |
| 2026-05-09 00:02 | 4.69971 | -74.15488 | 8363 ft | 40 kts | 126° |
| 2026-05-09 00:02 | 4.69815 | -74.15283 | 8363 ft | 29 kts | 127° |
| 2026-05-09 00:02 | 4.69730 | -74.15125 | 8363 ft | 23 kts | 103° |
| 2026-05-09 00:02 | 4.69707 | -74.14985 | 8363 ft | 17 kts | 97° |
| 2026-05-09 00:03 | 4.69702 | -74.14940 | 8363 ft | 1 kts | 96° |
| 2026-05-09 00:03 | 4.69701 | -74.14934 | 8363 ft | 0 kts | 96° |
| 2026-05-09 00:03 | 4.69701 | -74.14930 | 8363 ft | 1 kts | 96° |
| 2026-05-09 00:03 | 4.69698 | -74.14893 | 8363 ft | 9 kts | 92° |
| 2026-05-09 00:04 | 4.69728 | -74.14828 | 8363 ft | 11 kts | 44° |
| 2026-05-09 00:04 | 4.69799 | -74.14772 | 8363 ft | 11 kts | 37° |
| 2026-05-09 00:04 | 4.69845 | -74.14734 | 8363 ft | 4 kts | 70° |
| 2026-05-09 00:04 | 4.69834 | -74.14702 | 8363 ft | 4 kts | 122° |
| 2026-05-09 00:05 | 4.69811 | -74.14669 | 8363 ft | 4 kts | 125° |
| 2026-05-09 00:05 | 4.69793 | -74.14655 | 8363 ft | 3 kts | 178° |
| 2026-05-09 00:05 | 4.69772 | -74.14667 | 8363 ft | 3 kts | 217° |
| 2026-05-09 00:05 | 4.69758 | -74.14678 | 8363 ft | 0 kts | 217° |